sensor_id;sensor_type;location;lat;lon;timestamp;pressure;altitude;pressure_sealevel;temperature;humidity
77207;BME280;66190;50.708;7.906;2023-08-06T00:01:50;95475.16;;;14.44;89.42
77207;BME280;66190;50.708;7.906;2023-08-06T00:04:16;95473.53;;;14.43;89.47
77207;BME280;66190;50.708;7.906;2023-08-06T00:06:41;95469.66;;;14.39;89.65
77207;BME280;66190;50.708;7.906;2023-08-06T00:09:07;95459.63;;;14.34;90.29
77207;BME280;66190;50.708;7.906;2023-08-06T00:11:32;95468.56;;;14.35;90.42
77207;BME280;66190;50.708;7.906;2023-08-06T00:13:58;95457.16;;;14.33;90.49
77207;BME280;66190;50.708;7.906;2023-08-06T00:16:23;95462.88;;;14.36;90.53
77207;BME280;66190;50.708;7.906;2023-08-06T00:18:49;95456.06;;;14.34;91.37
77207;BME280;66190;50.708;7.906;2023-08-06T00:21:14;95459.69;;;14.39;90.98
77207;BME280;66190;50.708;7.906;2023-08-06T00:23:40;95446.72;;;14.41;90.84
77207;BME280;66190;50.708;7.906;2023-08-06T00:26:06;95454.00;;;14.41;91.26
77207;BME280;66190;50.708;7.906;2023-08-06T00:28:31;95446.16;;;14.39;91.07
77207;BME280;66190;50.708;7.906;2023-08-06T00:30:57;95442.13;;;14.42;91.26
77207;BME280;66190;50.708;7.906;2023-08-06T00:33:23;95439.16;;;14.43;91.36
77207;BME280;66190;50.708;7.906;2023-08-06T00:35:49;95438.84;;;14.40;91.91
77207;BME280;66190;50.708;7.906;2023-08-06T00:38:14;95438.59;;;14.41;91.54
77207;BME280;66190;50.708;7.906;2023-08-06T00:40:39;95449.69;;;14.40;91.94
77207;BME280;66190;50.708;7.906;2023-08-06T00:43:05;95436.94;;;14.40;91.69
77207;BME280;66190;50.708;7.906;2023-08-06T00:45:34;95426.94;;;14.41;91.33
77207;BME280;66190;50.708;7.906;2023-08-06T00:48:00;95423.41;;;14.40;91.36
77207;BME280;66190;50.708;7.906;2023-08-06T00:50:26;95434.50;;;14.39;91.57
77207;BME280;66190;50.708;7.906;2023-08-06T00:52:52;95429.00;;;14.34;91.91
77207;BME280;66190;50.708;7.906;2023-08-06T00:55:17;95427.41;;;14.33;91.85
77207;BME280;66190;50.708;7.906;2023-08-06T00:57:43;95435.25;;;14.34;92.27
77207;BME280;66190;50.708;7.906;2023-08-06T01:00:09;95432.03;;;14.37;92.22
77207;BME280;66190;50.708;7.906;2023-08-06T01:02:35;95429.66;;;14.41;91.86
77207;BME280;66190;50.708;7.906;2023-08-06T01:05:00;95426.13;;;14.40;91.72
77207;BME280;66190;50.708;7.906;2023-08-06T01:07:51;95420.66;;;14.35;92.14
77207;BME280;66190;50.708;7.906;2023-08-06T01:15:41;95407.13;;;14.35;91.99
77207;BME280;66190;50.708;7.906;2023-08-06T01:18:06;95406.63;;;14.38;91.65
77207;BME280;66190;50.708;7.906;2023-08-06T01:20:32;95405.28;;;14.41;91.97
77207;BME280;66190;50.708;7.906;2023-08-06T01:22:58;95391.75;;;14.41;91.95
77207;BME280;66190;50.708;7.906;2023-08-06T01:25:30;95392.03;;;14.39;92.04
77207;BME280;66190;50.708;7.906;2023-08-06T01:28:04;95388.22;;;14.40;91.88
77207;BME280;66190;50.708;7.906;2023-08-06T01:30:33;95389.06;;;14.41;92.15
77207;BME280;66190;50.708;7.906;2023-08-06T01:33:04;95389.06;;;14.41;91.70
77207;BME280;66190;50.708;7.906;2023-08-06T01:35:32;95386.94;;;14.43;91.63
77207;BME280;66190;50.708;7.906;2023-08-06T01:37:59;95388.00;;;14.42;91.63
77207;BME280;66190;50.708;7.906;2023-08-06T01:40:26;95385.31;;;14.42;91.46
77207;BME280;66190;50.708;7.906;2023-08-06T01:42:53;95379.38;;;14.45;91.58
77207;BME280;66190;50.708;7.906;2023-08-06T01:45:19;95385.63;;;14.45;91.65
77207;BME280;66190;50.708;7.906;2023-08-06T01:47:44;95379.06;;;14.41;91.82
77207;BME280;66190;50.708;7.906;2023-08-06T01:50:09;95383.91;;;14.39;91.96
77207;BME280;66190;50.708;7.906;2023-08-06T01:52:35;95382.34;;;14.43;91.90
77207;BME280;66190;50.708;7.906;2023-08-06T01:55:00;95379.63;;;14.43;91.81
77207;BME280;66190;50.708;7.906;2023-08-06T01:57:25;95378.50;;;14.39;92.22
77207;BME280;66190;50.708;7.906;2023-08-06T01:59:51;95378.22;;;14.41;92.22
77207;BME280;66190;50.708;7.906;2023-08-06T02:02:16;95379.38;;;14.45;91.86
77207;BME280;66190;50.708;7.906;2023-08-06T02:04:42;95383.13;;;14.44;91.94
77207;BME280;66190;50.708;7.906;2023-08-06T02:07:07;95376.94;;;14.43;91.64
77207;BME280;66190;50.708;7.906;2023-08-06T02:09:33;95383.34;;;14.37;92.03
77207;BME280;66190;50.708;7.906;2023-08-06T02:12:00;95379.75;;;14.32;92.82
77207;BME280;66190;50.708;7.906;2023-08-06T02:14:26;95378.75;;;14.38;92.46
77207;BME280;66190;50.708;7.906;2023-08-06T02:16:51;95367.94;;;14.38;92.48
77207;BME280;66190;50.708;7.906;2023-08-06T02:19:16;95369.22;;;14.35;92.81
77207;BME280;66190;50.708;7.906;2023-08-06T02:21:42;95368.91;;;14.32;92.67
77207;BME280;66190;50.708;7.906;2023-08-06T02:24:07;95363.81;;;14.35;92.81
77207;BME280;66190;50.708;7.906;2023-08-06T02:26:33;95357.88;;;14.33;92.69
77207;BME280;66190;50.708;7.906;2023-08-06T02:28:58;95364.59;;;14.31;92.18
77207;BME280;66190;50.708;7.906;2023-08-06T02:31:23;95366.53;;;14.35;91.45
77207;BME280;66190;50.708;7.906;2023-08-06T02:33:49;95354.91;;;14.35;91.00
77207;BME280;66190;50.708;7.906;2023-08-06T02:36:14;95358.47;;;14.40;90.88
77207;BME280;66190;50.708;7.906;2023-08-06T02:38:40;95351.75;;;14.43;90.74
77207;BME280;66190;50.708;7.906;2023-08-06T02:41:05;95343.63;;;14.43;91.05
77207;BME280;66190;50.708;7.906;2023-08-06T02:43:31;95342.78;;;14.42;91.16
77207;BME280;66190;50.708;7.906;2023-08-06T02:45:57;95327.97;;;14.45;90.79
77207;BME280;66190;50.708;7.906;2023-08-06T02:48:23;95325.13;;;14.35;91.47
77207;BME280;66190;50.708;7.906;2023-08-06T02:50:48;95340.28;;;14.36;91.04
77207;BME280;66190;50.708;7.906;2023-08-06T02:53:14;95336.44;;;14.32;91.05
77207;BME280;66190;50.708;7.906;2023-08-06T02:55:45;95332.06;;;14.26;91.30
77207;BME280;66190;50.708;7.906;2023-08-06T02:58:11;95327.47;;;14.26;91.55
77207;BME280;66190;50.708;7.906;2023-08-06T03:00:37;95324.78;;;14.26;92.01
77207;BME280;66190;50.708;7.906;2023-08-06T03:03:02;95320.16;;;14.27;91.88
77207;BME280;66190;50.708;7.906;2023-08-06T03:05:27;95324.78;;;14.26;91.82
77207;BME280;66190;50.708;7.906;2023-08-06T03:07:53;95319.09;;;14.28;91.69
77207;BME280;66190;50.708;7.906;2023-08-06T03:10:18;95316.41;;;14.28;91.31
77207;BME280;66190;50.708;7.906;2023-08-06T03:12:45;95310.16;;;14.27;91.48
77207;BME280;66190;50.708;7.906;2023-08-06T03:15:10;95301.78;;;14.29;91.49
77207;BME280;66190;50.708;7.906;2023-08-06T03:17:35;95299.34;;;14.27;91.67
77207;BME280;66190;50.708;7.906;2023-08-06T03:20:01;95306.38;;;14.28;91.82
77207;BME280;66190;50.708;7.906;2023-08-06T03:22:26;95297.72;;;14.26;91.70
77207;BME280;66190;50.708;7.906;2023-08-06T03:24:52;95299.81;;;14.24;91.81
77207;BME280;66190;50.708;7.906;2023-08-06T03:27:17;95300.88;;;14.23;91.46
77207;BME280;66190;50.708;7.906;2023-08-06T03:29:42;95300.31;;;14.21;91.37
77207;BME280;66190;50.708;7.906;2023-08-06T03:32:08;95299.47;;;14.16;91.45
77207;BME280;66190;50.708;7.906;2023-08-06T03:34:33;95300.75;;;14.13;91.88
77207;BME280;66190;50.708;7.906;2023-08-06T03:36:58;95300.75;;;14.13;91.92
77207;BME280;66190;50.708;7.906;2023-08-06T03:39:24;95293.28;;;14.20;91.41
77207;BME280;66190;50.708;7.906;2023-08-06T03:41:49;95294.91;;;14.21;91.35
77207;BME280;66190;50.708;7.906;2023-08-06T03:44:14;95290.56;;;14.20;91.43
77207;BME280;66190;50.708;7.906;2023-08-06T03:46:40;95290.31;;;14.22;91.57
77207;BME280;66190;50.708;7.906;2023-08-06T03:49:05;95282.19;;;14.22;91.15
77207;BME280;66190;50.708;7.906;2023-08-06T03:51:30;95286.78;;;14.21;91.56
77207;BME280;66190;50.708;7.906;2023-08-06T03:53:56;95293.53;;;14.19;91.88
77207;BME280;66190;50.708;7.906;2023-08-06T03:56:21;95278.28;;;14.13;92.06
77207;BME280;66190;50.708;7.906;2023-08-06T03:58:47;95278.34;;;14.18;91.37
77207;BME280;66190;50.708;7.906;2023-08-06T04:01:12;95274.34;;;14.20;90.87
77207;BME280;66190;50.708;7.906;2023-08-06T04:03:37;95276.47;;;14.18;91.50
77207;BME280;66190;50.708;7.906;2023-08-06T04:06:03;95274.84;;;14.17;91.31
77207;BME280;66190;50.708;7.906;2023-08-06T04:08:28;95277.03;;;14.20;90.62
77207;BME280;66190;50.708;7.906;2023-08-06T04:10:54;95278.13;;;14.19;91.03
77207;BME280;66190;50.708;7.906;2023-08-06T04:13:19;95274.59;;;14.19;91.18
77207;BME280;66190;50.708;7.906;2023-08-06T04:15:45;95275.41;;;14.19;91.35
77207;BME280;66190;50.708;7.906;2023-08-06T04:18:11;95265.72;;;14.23;91.37
77207;BME280;66190;50.708;7.906;2023-08-06T04:20:44;95274.66;;;14.24;91.19
77207;BME280;66190;50.708;7.906;2023-08-06T04:23:10;95269.50;;;14.22;91.54
77207;BME280;66190;50.708;7.906;2023-08-06T04:25:35;95262.75;;;14.25;91.72
77207;BME280;66190;50.708;7.906;2023-08-06T04:28:01;95265.00;;;14.28;91.67
77207;BME280;66190;50.708;7.906;2023-08-06T04:30:26;95261.72;;;14.26;92.48
77207;BME280;66190;50.708;7.906;2023-08-06T04:32:51;95257.34;;;14.25;92.45
77207;BME280;66190;50.708;7.906;2023-08-06T04:35:17;95260.88;;;14.25;92.44
77207;BME280;66190;50.708;7.906;2023-08-06T04:37:42;95260.63;;;14.27;92.70
77207;BME280;66190;50.708;7.906;2023-08-06T04:40:08;95261.94;;;14.24;92.94
77207;BME280;66190;50.708;7.906;2023-08-06T04:42:33;95256.06;;;14.27;93.11
77207;BME280;66190;50.708;7.906;2023-08-06T04:45:00;95259.84;;;14.26;93.05
77207;BME280;66190;50.708;7.906;2023-08-06T04:47:26;95252.25;;;14.28;93.04
77207;BME280;66190;50.708;7.906;2023-08-06T04:49:51;95253.34;;;14.27;92.91
77207;BME280;66190;50.708;7.906;2023-08-06T04:52:16;95257.34;;;14.25;92.99
77207;BME280;66190;50.708;7.906;2023-08-06T04:54:43;95261.22;;;14.29;93.35
77207;BME280;66190;50.708;7.906;2023-08-06T04:57:09;95257.66;;;14.28;93.20
77207;BME280;66190;50.708;7.906;2023-08-06T04:59:34;95257.59;;;14.23;93.43
77207;BME280;66190;50.708;7.906;2023-08-06T05:01:59;95263.00;;;14.23;94.15
77207;BME280;66190;50.708;7.906;2023-08-06T05:04:25;95254.31;;;14.21;94.26
77207;BME280;66190;50.708;7.906;2023-08-06T05:07:10;95261.63;;;14.21;93.96
77207;BME280;66190;50.708;7.906;2023-08-06T05:09:36;95258.88;;;14.16;93.88
77207;BME280;66190;50.708;7.906;2023-08-06T05:12:03;95265.28;;;14.10;94.65
77207;BME280;66190;50.708;7.906;2023-08-06T05:14:29;95262.59;;;14.10;94.84
77207;BME280;66190;50.708;7.906;2023-08-06T05:16:54;95258.00;;;14.10;94.66
77207;BME280;66190;50.708;7.906;2023-08-06T05:19:19;95265.59;;;14.13;94.39
77207;BME280;66190;50.708;7.906;2023-08-06T05:21:45;95258.31;;;14.14;94.37
77207;BME280;66190;50.708;7.906;2023-08-06T05:24:10;95263.72;;;14.14;94.46
77207;BME280;66190;50.708;7.906;2023-08-06T05:26:36;95262.44;;;14.21;94.42
77207;BME280;66190;50.708;7.906;2023-08-06T05:29:01;95259.19;;;14.19;94.30
77207;BME280;66190;50.708;7.906;2023-08-06T05:31:26;95259.72;;;14.21;93.99
77207;BME280;66190;50.708;7.906;2023-08-06T05:33:54;95265.72;;;14.23;94.15
77207;BME280;66190;50.708;7.906;2023-08-06T05:36:19;95261.22;;;14.29;93.92
77207;BME280;66190;50.708;7.906;2023-08-06T05:38:44;95264.84;;;14.39;94.17
77207;BME280;66190;50.708;7.906;2023-08-06T05:41:10;95257.25;;;14.36;94.56
77207;BME280;66190;50.708;7.906;2023-08-06T05:43:35;95266.75;;;14.44;94.21
77207;BME280;66190;50.708;7.906;2023-08-06T05:46:00;95262.97;;;14.40;94.31
77207;BME280;66190;50.708;7.906;2023-08-06T05:48:26;95260.91;;;14.52;94.39
77207;BME280;66190;50.708;7.906;2023-08-06T05:50:53;95266.06;;;14.53;93.95
77207;BME280;66190;50.708;7.906;2023-08-06T05:53:18;95270.97;;;14.56;93.65
77207;BME280;66190;50.708;7.906;2023-08-06T05:55:45;95270.88;;;14.46;93.84
77207;BME280;66190;50.708;7.906;2023-08-06T05:58:10;95269.47;;;14.44;94.16
77207;BME280;66190;50.708;7.906;2023-08-06T06:00:35;95270.34;;;14.49;94.04
77207;BME280;66190;50.708;7.906;2023-08-06T06:03:01;95271.94;;;14.45;93.76
77207;BME280;66190;50.708;7.906;2023-08-06T06:05:27;95264.44;;;14.52;93.93
77207;BME280;66190;50.708;7.906;2023-08-06T06:07:53;95262.78;;;14.51;93.63
77207;BME280;66190;50.708;7.906;2023-08-06T06:10:18;95269.28;;;14.50;93.51
77207;BME280;66190;50.708;7.906;2023-08-06T06:12:44;95269.78;;;14.47;94.19
77207;BME280;66190;50.708;7.906;2023-08-06T06:15:09;95274.44;;;14.52;93.50
77207;BME280;66190;50.708;7.906;2023-08-06T06:17:35;95267.91;;;14.48;94.14
77207;BME280;66190;50.708;7.906;2023-08-06T06:20:00;95273.63;;;14.51;94.46
77207;BME280;66190;50.708;7.906;2023-08-06T06:22:26;95273.97;;;14.60;94.05
77207;BME280;66190;50.708;7.906;2023-08-06T06:24:51;95281.56;;;14.63;93.85
77207;BME280;66190;50.708;7.906;2023-08-06T06:27:16;95281.44;;;14.74;93.48
77207;BME280;66190;50.708;7.906;2023-08-06T06:29:42;95277.16;;;14.78;93.30
77207;BME280;66190;50.708;7.906;2023-08-06T06:32:07;95280.13;;;14.82;93.71
77207;BME280;66190;50.708;7.906;2023-08-06T06:34:33;95282.91;;;14.87;93.83
77207;BME280;66190;50.708;7.906;2023-08-06T06:36:58;95286.72;;;14.91;93.02
77207;BME280;66190;50.708;7.906;2023-08-06T06:39:23;95277.53;;;14.92;93.43
77207;BME280;66190;50.708;7.906;2023-08-06T06:41:49;95277.50;;;14.87;94.29
77207;BME280;66190;50.708;7.906;2023-08-06T06:44:14;95271.28;;;14.92;93.31
77207;BME280;66190;50.708;7.906;2023-08-06T06:46:40;95277.84;;;14.96;93.73
77207;BME280;66190;50.708;7.906;2023-08-06T06:49:06;95267.19;;;14.89;93.61
77207;BME280;66190;50.708;7.906;2023-08-06T06:51:31;95270.72;;;14.90;93.15
77207;BME280;66190;50.708;7.906;2023-08-06T06:53:57;95282.69;;;14.94;93.69
77207;BME280;66190;50.708;7.906;2023-08-06T06:56:22;95272.41;;;14.96;94.16
77207;BME280;66190;50.708;7.906;2023-08-06T06:58:48;95277.00;;;14.95;93.67
77207;BME280;66190;50.708;7.906;2023-08-06T07:01:13;95276.47;;;14.98;93.90
77207;BME280;66190;50.708;7.906;2023-08-06T07:03:38;95274.81;;;14.92;93.83
77207;BME280;66190;50.708;7.906;2023-08-06T07:06:04;95278.66;;;15.01;93.48
77207;BME280;66190;50.708;7.906;2023-08-06T07:08:30;95277.53;;;14.92;93.36
77207;BME280;66190;50.708;7.906;2023-08-06T07:11:06;95276.94;;;14.85;94.29
77207;BME280;66190;50.708;7.906;2023-08-06T07:13:32;95274.59;;;14.99;93.94
77207;BME280;66190;50.708;7.906;2023-08-06T07:15:58;95275.91;;;14.96;93.68
77207;BME280;66190;50.708;7.906;2023-08-06T07:18:24;95276.78;;;15.02;94.09
77207;BME280;66190;50.708;7.906;2023-08-06T07:20:50;95276.72;;;14.92;93.85
77207;BME280;66190;50.708;7.906;2023-08-06T07:23:16;95282.38;;;14.90;94.46
77207;BME280;66190;50.708;7.906;2023-08-06T07:25:41;95276.75;;;14.97;93.55
77207;BME280;66190;50.708;7.906;2023-08-06T07:28:07;95283.09;;;14.80;93.99
77207;BME280;66190;50.708;7.906;2023-08-06T07:30:33;95275.00;;;14.86;92.72
77207;BME280;66190;50.708;7.906;2023-08-06T07:32:58;95282.34;;;14.85;92.20
77207;BME280;66190;50.708;7.906;2023-08-06T07:35:23;95281.78;;;14.83;92.10
77207;BME280;66190;50.708;7.906;2023-08-06T07:37:49;95278.38;;;14.66;93.49
77207;BME280;66190;50.708;7.906;2023-08-06T07:40:14;95288.94;;;14.41;94.45
77207;BME280;66190;50.708;7.906;2023-08-06T07:42:40;95288.06;;;14.35;94.93
77207;BME280;66190;50.708;7.906;2023-08-06T07:45:06;95291.72;;;14.24;95.89
77207;BME280;66190;50.708;7.906;2023-08-06T07:47:32;95289.19;;;14.18;95.44
77207;BME280;66190;50.708;7.906;2023-08-06T07:49:57;95291.22;;;14.27;95.90
77207;BME280;66190;50.708;7.906;2023-08-06T07:52:23;95285.47;;;14.24;95.65
77207;BME280;66190;50.708;7.906;2023-08-06T07:54:48;95292.63;;;14.30;97.11
77207;BME280;66190;50.708;7.906;2023-08-06T07:57:13;95292.75;;;14.23;97.05
77207;BME280;66190;50.708;7.906;2023-08-06T07:59:40;95295.41;;;14.18;97.48
77207;BME280;66190;50.708;7.906;2023-08-06T08:02:05;95291.28;;;14.11;96.80
77207;BME280;66190;50.708;7.906;2023-08-06T08:04:31;95296.25;;;14.19;97.05
77207;BME280;66190;50.708;7.906;2023-08-06T08:06:56;95296.50;;;14.17;96.50
77207;BME280;66190;50.708;7.906;2023-08-06T08:09:21;95289.13;;;14.13;96.69
77207;BME280;66190;50.708;7.906;2023-08-06T08:11:47;95295.09;;;14.15;96.97
77207;BME280;66190;50.708;7.906;2023-08-06T08:14:12;95294.78;;;14.11;97.85
77207;BME280;66190;50.708;7.906;2023-08-06T08:16:38;95296.88;;;14.04;97.71
77207;BME280;66190;50.708;7.906;2023-08-06T08:19:03;95298.69;;;14.20;98.29
77207;BME280;66190;50.708;7.906;2023-08-06T08:21:29;95285.81;;;14.27;98.11
77207;BME280;66190;50.708;7.906;2023-08-06T08:23:54;95289.59;;;14.26;97.85
77207;BME280;66190;50.708;7.906;2023-08-06T08:26:20;95278.25;;;14.29;98.37
77207;BME280;66190;50.708;7.906;2023-08-06T08:28:45;95281.38;;;14.43;98.59
77207;BME280;66190;50.708;7.906;2023-08-06T08:31:11;95291.69;;;14.46;98.07
77207;BME280;66190;50.708;7.906;2023-08-06T08:33:40;95288.38;;;14.65;98.18
77207;BME280;66190;50.708;7.906;2023-08-06T08:36:05;95285.38;;;14.62;97.73
77207;BME280;66190;50.708;7.906;2023-08-06T08:38:31;95284.84;;;14.65;97.66
77207;BME280;66190;50.708;7.906;2023-08-06T08:40:56;95289.78;;;14.68;97.24
77207;BME280;66190;50.708;7.906;2023-08-06T08:43:23;95296.00;;;14.42;95.32
77207;BME280;66190;50.708;7.906;2023-08-06T08:45:53;95292.66;;;14.35;96.16
77207;BME280;66190;50.708;7.906;2023-08-06T08:48:21;95295.06;;;14.31;97.35
77207;BME280;66190;50.708;7.906;2023-08-06T08:50:49;95300.09;;;14.23;96.61
77207;BME280;66190;50.708;7.906;2023-08-06T08:53:16;95298.81;;;14.30;97.37
77207;BME280;66190;50.708;7.906;2023-08-06T08:55:48;95299.81;;;14.24;96.88
77207;BME280;66190;50.708;7.906;2023-08-06T08:58:14;95297.22;;;14.29;97.83
77207;BME280;66190;50.708;7.906;2023-08-06T09:00:43;95302.34;;;13.88;96.61
77207;BME280;66190;50.708;7.906;2023-08-06T09:03:10;95314.59;;;13.74;96.86
77207;BME280;66190;50.708;7.906;2023-08-06T09:05:39;95316.47;;;13.73;97.41
77207;BME280;66190;50.708;7.906;2023-08-06T09:08:08;95318.44;;;13.78;97.57
77207;BME280;66190;50.708;7.906;2023-08-06T09:10:36;95319.41;;;13.88;98.22
77207;BME280;66190;50.708;7.906;2023-08-06T09:13:02;95322.84;;;14.05;98.18
77207;BME280;66190;50.708;7.906;2023-08-06T09:15:29;95327.38;;;14.00;96.40
77207;BME280;66190;50.708;7.906;2023-08-06T09:17:55;95326.22;;;13.96;95.85
77207;BME280;66190;50.708;7.906;2023-08-06T09:20:21;95321.56;;;14.13;96.55
77207;BME280;66190;50.708;7.906;2023-08-06T09:22:47;95327.56;;;14.15;94.64
77207;BME280;66190;50.708;7.906;2023-08-06T09:25:22;95330.47;;;14.08;95.95
77207;BME280;66190;50.708;7.906;2023-08-06T09:27:50;95328.91;;;14.12;95.77
77207;BME280;66190;50.708;7.906;2023-08-06T09:30:29;95332.09;;;14.09;95.89
77207;BME280;66190;50.708;7.906;2023-08-06T09:32:55;95333.75;;;14.10;96.43
77207;BME280;66190;50.708;7.906;2023-08-06T09:35:21;95332.59;;;14.06;96.87
77207;BME280;66190;50.708;7.906;2023-08-06T09:37:47;95337.44;;;14.04;96.42
77207;BME280;66190;50.708;7.906;2023-08-06T09:40:31;95329.94;;;14.11;98.03
77207;BME280;66190;50.708;7.906;2023-08-06T09:42:57;95332.91;;;14.10;97.71
77207;BME280;66190;50.708;7.906;2023-08-06T09:45:30;95336.25;;;14.17;98.00
77207;BME280;66190;50.708;7.906;2023-08-06T09:47:56;95337.13;;;14.22;98.46
77207;BME280;66190;50.708;7.906;2023-08-06T09:50:22;95341.09;;;14.15;97.67
77207;BME280;66190;50.708;7.906;2023-08-06T09:52:48;95335.41;;;14.16;98.87
77207;BME280;66190;50.708;7.906;2023-08-06T09:55:15;95335.66;;;14.15;98.23
77207;BME280;66190;50.708;7.906;2023-08-06T09:57:42;95343.22;;;14.13;98.31
77207;BME280;66190;50.708;7.906;2023-08-06T10:00:11;95337.13;;;14.22;97.63
77207;BME280;66190;50.708;7.906;2023-08-06T10:02:43;95340.03;;;14.37;98.82
77207;BME280;66190;50.708;7.906;2023-08-06T10:05:09;95343.63;;;14.43;98.32
77207;BME280;66190;50.708;7.906;2023-08-06T10:07:35;95341.19;;;14.25;97.81
77207;BME280;66190;50.708;7.906;2023-08-06T10:10:02;95339.53;;;14.40;96.83
77207;BME280;66190;50.708;7.906;2023-08-06T10:12:34;95342.84;;;14.47;97.28
77207;BME280;66190;50.708;7.906;2023-08-06T10:15:04;95336.06;;;14.45;97.63
77207;BME280;66190;50.708;7.906;2023-08-06T10:17:31;95332.03;;;14.47;97.64
77207;BME280;66190;50.708;7.906;2023-08-06T10:19:59;95338.69;;;14.61;97.41
77207;BME280;66190;50.708;7.906;2023-08-06T10:22:24;95327.38;;;14.64;97.16
77207;BME280;66190;50.708;7.906;2023-08-06T10:24:59;95335.00;;;14.72;97.20
77207;BME280;66190;50.708;7.906;2023-08-06T10:27:54;95329.03;;;14.70;95.56
77207;BME280;66190;50.708;7.906;2023-08-06T10:30:27;95332.16;;;14.57;97.27
77207;BME280;66190;50.708;7.906;2023-08-06T10:33:00;95326.38;;;14.75;97.90
77207;BME280;66190;50.708;7.906;2023-08-06T10:35:45;95339.44;;;14.78;96.92
77207;BME280;66190;50.708;7.906;2023-08-06T10:38:25;95338.69;;;14.88;97.16
77207;BME280;66190;50.708;7.906;2023-08-06T10:43:38;95334.00;;;15.10;97.36
77207;BME280;66190;50.708;7.906;2023-08-06T10:46:09;95341.97;;;14.90;96.90
77207;BME280;66190;50.708;7.906;2023-08-06T10:48:40;95335.41;;;14.59;96.45
77207;BME280;66190;50.708;7.906;2023-08-06T10:51:10;95327.59;;;14.63;97.32
77207;BME280;66190;50.708;7.906;2023-08-06T10:53:36;95343.66;;;14.69;98.06
77207;BME280;66190;50.708;7.906;2023-08-06T10:56:02;95340.06;;;14.64;98.54
77207;BME280;66190;50.708;7.906;2023-08-06T10:58:37;95333.47;;;14.55;99.17
77207;BME280;66190;50.708;7.906;2023-08-06T11:01:02;95341.91;;;14.58;98.81
77207;BME280;66190;50.708;7.906;2023-08-06T11:03:28;95336.44;;;14.53;99.73
77207;BME280;66190;50.708;7.906;2023-08-06T11:05:53;95343.94;;;14.46;99.08
77207;BME280;66190;50.708;7.906;2023-08-06T11:08:31;95342.28;;;14.24;99.97
77207;BME280;66190;50.708;7.906;2023-08-06T11:11:07;95345.59;;;14.09;100.00
77207;BME280;66190;50.708;7.906;2023-08-06T11:13:37;95345.41;;;13.94;100.00
77207;BME280;66190;50.708;7.906;2023-08-06T11:16:05;95347.56;;;13.92;100.00
77207;BME280;66190;50.708;7.906;2023-08-06T11:18:32;95355.16;;;13.95;100.00
77207;BME280;66190;50.708;7.906;2023-08-06T11:20:59;95352.16;;;13.92;100.00
77207;BME280;66190;50.708;7.906;2023-08-06T11:23:29;95360.28;;;13.75;100.00
77207;BME280;66190;50.708;7.906;2023-08-06T11:25:58;95369.31;;;13.64;100.00
77207;BME280;66190;50.708;7.906;2023-08-06T11:28:23;95361.81;;;13.49;100.00
77207;BME280;66190;50.708;7.906;2023-08-06T11:30:50;95374.16;;;13.45;100.00
77207;BME280;66190;50.708;7.906;2023-08-06T11:33:25;95379.00;;;13.27;100.00
77207;BME280;66190;50.708;7.906;2023-08-06T11:35:51;95385.78;;;13.13;100.00
77207;BME280;66190;50.708;7.906;2023-08-06T11:38:17;95397.00;;;12.93;100.00
77207;BME280;66190;50.708;7.906;2023-08-06T11:40:47;95405.09;;;13.05;100.00
77207;BME280;66190;50.708;7.906;2023-08-06T11:43:13;95394.47;;;12.87;100.00
77207;BME280;66190;50.708;7.906;2023-08-06T11:45:39;95385.94;;;12.78;100.00
77207;BME280;66190;50.708;7.906;2023-08-06T11:48:05;95410.19;;;12.62;100.00
77207;BME280;66190;50.708;7.906;2023-08-06T11:50:31;95416.91;;;12.59;100.00
77207;BME280;66190;50.708;7.906;2023-08-06T11:53:00;95416.56;;;12.55;100.00
77207;BME280;66190;50.708;7.906;2023-08-06T11:55:27;95430.34;;;12.71;100.00
77207;BME280;66190;50.708;7.906;2023-08-06T11:57:54;95420.41;;;12.60;100.00
77207;BME280;66190;50.708;7.906;2023-08-06T12:00:20;95425.56;;;12.61;100.00
77207;BME280;66190;50.708;7.906;2023-08-06T12:02:49;95427.69;;;12.59;100.00
77207;BME280;66190;50.708;7.906;2023-08-06T12:05:21;95432.41;;;12.52;100.00
77207;BME280;66190;50.708;7.906;2023-08-06T12:07:55;95428.63;;;12.53;100.00
77207;BME280;66190;50.708;7.906;2023-08-06T12:10:22;95438.50;;;12.47;100.00
77207;BME280;66190;50.708;7.906;2023-08-06T12:12:49;95441.91;;;12.43;100.00
77207;BME280;66190;50.708;7.906;2023-08-06T12:15:15;95440.16;;;12.48;100.00
77207;BME280;66190;50.708;7.906;2023-08-06T12:17:41;95456.94;;;12.39;100.00
77207;BME280;66190;50.708;7.906;2023-08-06T12:20:07;95454.25;;;12.39;100.00
77207;BME280;66190;50.708;7.906;2023-08-06T12:22:34;95465.75;;;12.34;100.00
77207;BME280;66190;50.708;7.906;2023-08-06T12:25:05;95459.28;;;12.35;100.00
77207;BME280;66190;50.708;7.906;2023-08-06T12:27:36;95464.56;;;12.30;100.00
77207;BME280;66190;50.708;7.906;2023-08-06T12:30:03;95468.94;;;12.31;100.00
77207;BME280;66190;50.708;7.906;2023-08-06T12:32:29;95479.72;;;12.31;100.00
77207;BME280;66190;50.708;7.906;2023-08-06T12:34:54;95480.41;;;12.27;100.00
77207;BME280;66190;50.708;7.906;2023-08-06T12:37:20;95490.50;;;12.31;100.00
77207;BME280;66190;50.708;7.906;2023-08-06T12:39:45;95494.63;;;12.22;100.00
77207;BME280;66190;50.708;7.906;2023-08-06T12:42:11;95487.44;;;12.16;100.00
77207;BME280;66190;50.708;7.906;2023-08-06T12:44:36;95498.94;;;12.23;100.00
77207;BME280;66190;50.708;7.906;2023-08-06T12:47:02;95501.53;;;12.18;100.00
77207;BME280;66190;50.708;7.906;2023-08-06T12:49:27;95515.13;;;12.12;100.00
77207;BME280;66190;50.708;7.906;2023-08-06T12:51:54;95511.84;;;12.10;100.00
77207;BME280;66190;50.708;7.906;2023-08-06T12:54:21;95518.06;;;12.10;100.00
77207;BME280;66190;50.708;7.906;2023-08-06T12:56:47;95520.66;;;12.17;100.00
77207;BME280;66190;50.708;7.906;2023-08-06T12:59:16;95520.16;;;12.20;100.00
77207;BME280;66190;50.708;7.906;2023-08-06T13:01:42;95527.22;;;12.21;100.00
77207;BME280;66190;50.708;7.906;2023-08-06T13:04:09;95525.47;;;12.26;100.00